Time;durP1;ratioP1;P1;durP2;ratioP2;P2;SDS_P1;SDS_P2;PMS_P1;PMS_P2;Temp;Humidity;BMP_temperature;BMP_pressure;BME280_temperature;BME280_humidity;BME280_pressure;Samples;Min_cycle;Max_cycle;Signal;HPM_P1;HPM_P2
2024/04/18 00:01:29;;;;;;;17.73;11.05;;;5.40;99.90;;;;;;5347158;26;20017;-69
2024/04/18 00:03:55;;;;;;;16.98;11.05;;;5.30;99.90;;;;;;5347144;26;20016;-69
2024/04/18 00:06:20;;;;;;;17.25;10.05;;;5.30;99.90;;;;;;5347031;26;20005;-69
2024/04/18 00:08:46;;;;;;;17.35;10.98;;;5.40;99.90;;;;;;5347146;26;20005;-69
2024/04/18 00:11:12;;;;;;;16.02;11.43;;;5.30;99.90;;;;;;5347037;26;20000;-69
2024/04/18 00:13:37;;;;;;;15.45;9.85;;;5.40;99.90;;;;;;5346815;26;19992;-68
2024/04/18 00:16:03;;;;;;;15.77;9.93;;;5.40;99.90;;;;;;5346870;26;20001;-69
2024/04/18 00:18:29;;;;;;;18.45;11.10;;;5.40;99.90;;;;;;5347444;26;20316;-69
2024/04/18 00:20:54;;;;;;;16.27;10.35;;;5.40;99.90;;;;;;5347078;26;20004;-69
2024/04/18 00:23:20;;;;;;;17.58;11.15;;;5.40;99.90;;;;;;5347431;26;19993;-69
2024/04/18 00:25:46;;;;;;;15.95;10.40;;;5.40;99.90;;;;;;5347163;26;19993;-69
2024/04/18 00:28:11;;;;;;;14.73;10.80;;;5.40;99.90;;;;;;5347167;26;20007;-69
2024/04/18 00:30:38;;;;;;;14.48;10.85;;;5.40;99.90;;;;;;5347474;26;20008;-69
2024/04/18 00:33:04;;;;;;;20.38;12.00;;;5.40;99.90;;;;;;5346862;26;20000;-68
2024/04/18 00:35:30;;;;;;;18.52;12.05;;;5.40;99.90;;;;;;5347010;26;20007;-69
2024/04/18 00:37:55;;;;;;;19.05;11.63;;;5.40;99.90;;;;;;5347005;26;19997;-69
2024/04/18 00:40:21;;;;;;;17.50;11.05;;;5.40;99.90;;;;;;5346653;26;20071;-69
2024/04/18 00:42:47;;;;;;;22.35;12.13;;;5.40;99.90;;;;;;5346857;26;20012;-69
2024/04/18 00:45:13;;;;;;;18.35;11.75;;;5.40;99.90;;;;;;5346748;26;20007;-69
2024/04/18 00:47:39;;;;;;;18.85;11.68;;;5.40;99.90;;;;;;5346493;26;20385;-68
2024/04/18 00:50:09;;;;;;;19.95;12.07;;;5.40;99.90;;;;;;5346390;26;19997;-68
2024/04/18 00:52:35;;;;;;;19.00;11.48;;;5.40;99.90;;;;;;5345058;26;20451;-69
2024/04/18 00:55:03;;;;;;;18.42;11.82;;;5.40;99.90;;;;;;5348571;26;20001;-68
2024/04/18 00:57:29;;;;;;;24.85;12.80;;;5.40;99.90;;;;;;5349766;26;20074;-69
2024/04/18 00:59:56;;;;;;;21.48;12.73;;;5.40;99.90;;;;;;5349834;26;20397;-69
2024/04/18 01:02:25;;;;;;;19.58;11.93;;;5.40;99.90;;;;;;5349523;26;19996;-69
2024/04/18 01:04:51;;;;;;;17.48;12.10;;;5.40;99.90;;;;;;5349513;26;20024;-69
2024/04/18 01:07:17;;;;;;;20.52;11.90;;;5.40;99.90;;;;;;5347726;26;20447;-69
2024/04/18 01:09:42;;;;;;;18.98;12.45;;;5.40;99.90;;;;;;5349614;26;20007;-69
2024/04/18 01:12:08;;;;;;;20.98;11.85;;;5.40;99.90;;;;;;5349572;26;20112;-68
2024/04/18 01:14:34;;;;;;;17.17;10.50;;;5.40;99.90;;;;;;5349636;26;20451;-68
2024/04/18 01:17:02;;;;;;;20.90;11.60;;;5.30;99.90;;;;;;5347602;26;20008;-68
2024/04/18 01:19:28;;;;;;;20.95;11.68;;;5.40;99.90;;;;;;5349661;26;20011;-69
2024/04/18 01:21:54;;;;;;;19.42;11.32;;;5.40;99.90;;;;;;5349743;26;19993;-69
2024/04/18 01:24:20;;;;;;;17.42;10.65;;;5.30;99.90;;;;;;5349590;26;19993;-68
2024/04/18 01:26:46;;;;;;;15.88;9.80;;;5.40;99.90;;;;;;5349671;26;19997;-68
2024/04/18 01:29:11;;;;;;;16.20;10.27;;;5.40;99.90;;;;;;5349476;26;20339;-68
2024/04/18 01:31:37;;;;;;;19.50;10.85;;;5.40;99.90;;;;;;5349519;26;20016;-69
2024/04/18 01:34:03;;;;;;;19.08;10.85;;;5.40;99.90;;;;;;5349588;26;20369;-68
2024/04/18 01:36:28;;;;;;;19.70;11.15;;;5.40;99.90;;;;;;5349438;26;20001;-68
2024/04/18 01:38:54;;;;;;;20.30;11.25;;;5.30;99.90;;;;;;5349713;26;20431;-68
2024/04/18 01:41:21;;;;;;;15.77;11.52;;;5.30;99.90;;;;;;5348887;26;19993;-70
2024/04/18 01:43:46;;;;;;;19.15;11.35;;;5.30;99.90;;;;;;5349129;26;20004;-68
2024/04/18 01:46:12;;;;;;;18.30;11.15;;;5.30;99.90;;;;;;5349471;26;20009;-68
2024/04/18 01:48:38;;;;;;;22.83;12.75;;;5.30;99.90;;;;;;5348940;26;20471;-68
2024/04/18 01:51:04;;;;;;;21.30;11.25;;;5.30;99.90;;;;;;5349134;26;20390;-68
2024/04/18 01:53:30;;;;;;;20.23;11.15;;;5.30;99.90;;;;;;5349028;26;20012;-68
2024/04/18 01:55:56;;;;;;;18.13;11.30;;;5.30;99.90;;;;;;5347378;26;20465;-69
2024/04/18 01:58:21;;;;;;;18.15;9.95;;;5.30;99.90;;;;;;5347272;26;19993;-69
2024/04/18 02:00:47;;;;;;;15.30;9.45;;;5.30;99.90;;;;;;5348909;26;20351;-69
2024/04/18 02:03:13;;;;;;;14.90;9.40;;;5.30;99.90;;;;;;5348734;26;20007;-69
2024/04/18 02:05:39;;;;;;;21.02;9.32;;;5.40;99.90;;;;;;5348403;26;20008;-69
2024/04/18 02:08:05;;;;;;;13.40;8.25;;;5.40;99.90;;;;;;5348850;26;20007;-69
2024/04/18 02:10:30;;;;;;;15.82;9.15;;;5.40;99.90;;;;;;5348961;26;20005;-69
2024/04/18 02:12:56;;;;;;;13.52;8.20;;;5.40;99.90;;;;;;5348858;26;20005;-68
2024/04/18 02:15:25;;;;;;;16.95;8.85;;;5.30;99.90;;;;;;5348716;26;20096;-68
2024/04/18 02:17:51;;;;;;;12.48;8.85;;;5.40;99.90;;;;;;5348719;26;20328;-69
2024/04/18 02:20:19;;;;;;;15.38;9.88;;;5.30;99.90;;;;;;5348885;26;20007;-69
2024/04/18 02:22:45;;;;;;;16.58;8.65;;;5.30;99.90;;;;;;5349103;26;20008;-69
2024/04/18 02:25:11;;;;;;;15.23;9.15;;;5.40;99.90;;;;;;5349130;26;20004;-69
2024/04/18 02:27:41;;;;;;;16.58;9.23;;;5.40;99.90;;;;;;5348855;26;20009;-69
2024/04/18 02:30:09;;;;;;;16.23;9.60;;;5.40;99.90;;;;;;5348846;26;20011;-69
2024/04/18 02:32:35;;;;;;;16.90;9.85;;;5.40;99.90;;;;;;5349024;26;20012;-69
2024/04/18 02:35:01;;;;;;;16.20;9.68;;;5.40;99.90;;;;;;5347049;26;20340;-68
2024/04/18 02:37:27;;;;;;;16.52;9.45;;;5.40;99.90;;;;;;5348526;26;20439;-69
2024/04/18 02:39:53;;;;;;;19.80;9.32;;;5.30;99.90;;;;;;5348624;26;19997;-69
2024/04/18 02:42:19;;;;;;;15.02;9.40;;;5.40;99.90;;;;;;5348622;26;19996;-69
2024/04/18 02:44:44;;;;;;;19.38;9.20;;;5.30;99.90;;;;;;5348258;26;20011;-68
2024/04/18 02:47:10;;;;;;;21.20;9.60;;;5.40;99.90;;;;;;5348271;26;20334;-69
2024/04/18 02:49:36;;;;;;;16.42;9.60;;;5.40;99.90;;;;;;5348037;26;20350;-68
2024/04/18 02:52:03;;;;;;;14.65;8.73;;;5.40;99.90;;;;;;5348422;26;20062;-69
2024/04/18 02:54:29;;;;;;;17.48;8.90;;;5.40;99.90;;;;;;5348082;26;20295;-69
2024/04/18 02:56:54;;;;;;;17.65;8.98;;;5.40;99.90;;;;;;5348035;26;20001;-69
2024/04/18 02:59:20;;;;;;;17.38;8.23;;;5.40;99.90;;;;;;5347844;26;19997;-69
2024/04/18 03:01:45;;;;;;;18.42;9.00;;;5.40;99.90;;;;;;5348151;26;19996;-69
2024/04/18 03:04:11;;;;;;;18.10;8.05;;;5.40;99.90;;;;;;5348221;26;20013;-69
2024/04/18 03:06:37;;;;;;;23.90;8.15;;;5.40;99.90;;;;;;5347964;26;20375;-69
2024/04/18 03:09:03;;;;;;;18.90;8.82;;;5.40;99.90;;;;;;5348067;26;20071;-69
2024/04/18 03:11:28;;;;;;;20.70;8.10;;;5.30;99.90;;;;;;5348063;26;20338;-69
2024/04/18 03:13:54;;;;;;;17.13;8.10;;;5.30;99.90;;;;;;5347852;26;20008;-69
2024/04/18 03:16:19;;;;;;;14.25;8.02;;;5.30;99.90;;;;;;5347580;26;20001;-69
2024/04/18 03:18:45;;;;;;;18.17;8.23;;;5.30;99.90;;;;;;5347465;26;20359;-69
2024/04/18 03:21:11;;;;;;;13.80;7.90;;;5.30;99.90;;;;;;5348136;26;19993;-69
2024/04/18 03:23:37;;;;;;;16.05;8.02;;;5.30;99.90;;;;;;5348163;26;19997;-69
2024/04/18 03:26:03;;;;;;;21.70;9.05;;;5.20;99.90;;;;;;5348364;26;20001;-69
2024/04/18 03:28:29;;;;;;;16.50;8.30;;;5.20;99.90;;;;;;5348217;26;20008;-69
2024/04/18 03:30:54;;;;;;;21.98;8.23;;;5.10;99.90;;;;;;5347673;26;19993;-69
2024/04/18 03:33:20;;;;;;;13.93;7.05;;;5.10;99.90;;;;;;5345986;26;20074;-68
2024/04/18 03:35:45;;;;;;;19.00;8.23;;;5.00;99.90;;;;;;5348139;26;20458;-69
2024/04/18 03:38:11;;;;;;;21.23;8.70;;;4.90;99.90;;;;;;5347656;26;20011;-68
2024/04/18 03:40:38;;;;;;;18.13;8.23;;;5.00;99.90;;;;;;5347416;26;20005;-69
2024/04/18 03:43:04;;;;;;;17.40;8.30;;;4.90;99.90;;;;;;5347632;26;20009;-69
2024/04/18 03:45:30;;;;;;;15.35;8.20;;;4.90;99.90;;;;;;5346195;26;20033;-69
2024/04/18 03:47:55;;;;;;;19.20;8.65;;;5.00;99.90;;;;;;5347500;26;19993;-69
2024/04/18 03:50:21;;;;;;;19.23;8.75;;;5.00;99.90;;;;;;5347373;26;19997;-69
2024/04/18 03:52:47;;;;;;;17.77;8.57;;;5.00;99.90;;;;;;5347381;26;19993;-69
2024/04/18 03:55:12;;;;;;;17.20;7.55;;;5.00;99.90;;;;;;5347308;26;20005;-69
2024/04/18 03:57:38;;;;;;;18.75;8.50;;;5.00;99.90;;;;;;5347295;26;20011;-69
2024/04/18 04:00:04;;;;;;;24.20;9.13;;;5.00;99.90;;;;;;5347386;26;19996;-69
2024/04/18 04:02:31;;;;;;;25.20;8.77;;;5.00;99.90;;;;;;5347587;26;20078;-69
2024/04/18 04:04:57;;;;;;;19.13;8.13;;;5.00;99.90;;;;;;5345782;26;20435;-69
2024/04/18 04:07:23;;;;;;;17.17;8.27;;;5.00;99.90;;;;;;5347284;26;20001;-69
2024/04/18 04:09:49;;;;;;;15.82;8.52;;;5.00;99.90;;;;;;5347217;26;20069;-69
2024/04/18 04:12:15;;;;;;;18.70;8.60;;;4.90;99.90;;;;;;5345557;26;20000;-69
2024/04/18 04:14:40;;;;;;;17.38;8.05;;;4.90;99.90;;;;;;5347051;26;20012;-69
2024/04/18 04:17:08;;;;;;;16.75;7.47;;;4.90;99.90;;;;;;5346904;26;20008;-68
2024/04/18 04:19:34;;;;;;;19.25;8.98;;;4.80;99.90;;;;;;5347554;26;20078;-69
2024/04/18 04:21:59;;;;;;;19.33;8.10;;;4.80;99.90;;;;;;5347090;26;20000;-69
2024/04/18 04:24:25;;;;;;;20.35;8.27;;;4.80;99.90;;;;;;5347275;26;20008;-69
2024/04/18 04:26:51;;;;;;;20.52;7.45;;;4.80;99.90;;;;;;5347040;26;19997;-69
2024/04/18 04:29:17;;;;;;;23.52;8.35;;;4.80;99.90;;;;;;5348110;26;19997;-68
2024/04/18 04:31:43;;;;;;;20.48;8.50;;;4.80;99.90;;;;;;5350061;26;20004;-69
2024/04/18 04:34:10;;;;;;;25.10;8.27;;;4.90;99.90;;;;;;5350374;26;20440;-69
2024/04/18 04:36:36;;;;;;;25.98;9.63;;;4.90;99.90;;;;;;5348588;26;20003;-69
2024/04/18 04:39:01;;;;;;;16.60;7.55;;;4.90;99.90;;;;;;5350123;26;19997;-69
2024/04/18 04:41:27;;;;;;;20.48;7.60;;;4.90;99.90;;;;;;5350294;26;20447;-69
2024/04/18 04:43:53;;;;;;;23.02;8.30;;;4.90;99.90;;;;;;5350247;26;19996;-69
2024/04/18 04:46:18;;;;;;;19.00;8.63;;;4.90;99.90;;;;;;5348491;26;20037;-69
2024/04/18 04:48:44;;;;;;;13.85;7.25;;;5.00;99.90;;;;;;5350128;26;20357;-69
2024/04/18 04:51:10;;;;;;;23.17;7.63;;;5.00;99.90;;;;;;5349868;26;20389;-69
2024/04/18 04:53:36;;;;;;;19.50;8.35;;;5.00;99.90;;;;;;5348470;26;20075;-70
2024/04/18 04:56:02;;;;;;;25.58;7.18;;;5.00;99.90;;;;;;5350076;26;20015;-70
2024/04/18 04:58:27;;;;;;;18.98;7.68;;;5.00;99.90;;;;;;5349815;26;20504;-70
2024/04/18 05:00:54;;;;;;;20.33;7.88;;;4.90;99.90;;;;;;5349507;26;20459;-70
2024/04/18 05:03:20;;;;;;;16.83;7.63;;;5.00;99.90;;;;;;5349546;26;20033;-69
2024/04/18 05:05:46;;;;;;;21.80;7.53;;;5.00;99.90;;;;;;5349453;26;20338;-69
2024/04/18 05:08:12;;;;;;;12.32;5.95;;;5.00;99.90;;;;;;5349648;26;20001;-69
2024/04/18 05:10:43;;;;;;;15.40;6.80;;;5.00;99.90;;;;;;5347878;26;20069;-69
2024/04/18 05:13:11;;;;;;;19.88;7.35;;;5.00;99.90;;;;;;5349462;26;20012;-69
2024/04/18 05:15:36;;;;;;;17.95;7.00;;;5.10;99.90;;;;;;5349601;26;19997;-67
2024/04/18 05:18:06;;;;;;;20.38;8.45;;;5.10;99.90;;;;;;5349375;26;20011;-68
2024/04/18 05:20:32;;;;;;;21.02;7.78;;;5.10;99.90;;;;;;5349662;26;19997;-67
2024/04/18 05:22:57;;;;;;;16.50;6.53;;;5.10;99.90;;;;;;5349566;26;20008;-67
2024/04/18 05:25:23;;;;;;;15.18;6.32;;;5.10;99.90;;;;;;5349443;26;19992;-67
2024/04/18 05:28:09;;;;;;;18.65;6.47;;;5.10;99.90;;;;;;5349524;26;20355;-67
2024/04/18 05:31:06;;;;;;;14.77;6.10;;;5.10;99.90;;;;;;5347882;26;20016;-67
2024/04/18 05:33:20;;;;;;;18.42;6.78;;;5.10;99.90;;;;;;5349218;26;20012;-67
2024/04/18 05:35:46;;;;;;;12.88;5.90;;;5.10;99.90;;;;;;5349345;26;20001;-68
2024/04/18 05:38:11;;;;;;;16.25;6.28;;;5.00;99.90;;;;;;5349369;26;19997;-67
2024/04/18 05:40:37;;;;;;;14.57;6.13;;;5.00;99.90;;;;;;5348983;26;20066;-68
2024/04/18 05:43:03;;;;;;;18.17;5.78;;;5.00;99.90;;;;;;5349141;26;19996;-68
2024/04/18 05:45:28;;;;;;;14.60;5.20;;;5.00;99.90;;;;;;5349436;26;20352;-68
2024/04/18 05:47:54;;;;;;;13.73;5.82;;;5.00;99.90;;;;;;5349094;26;20007;-68
2024/04/18 05:50:20;;;;;;;27.17;6.35;;;5.10;99.90;;;;;;5349098;26;20471;-69
2024/04/18 05:52:46;;;;;;;15.05;6.03;;;5.10;99.90;;;;;;5349338;26;19993;-69
2024/04/18 05:55:11;;;;;;;11.55;5.88;;;5.20;99.90;;;;;;5348998;26;20348;-69
2024/04/18 05:57:37;;;;;;;12.60;4.97;;;5.30;99.90;;;;;;5348885;26;19993;-68
2024/04/18 06:00:03;;;;;;;12.02;5.30;;;5.50;99.90;;;;;;5348776;26;20086;-69
2024/04/18 06:02:29;;;;;;;14.57;4.93;;;5.70;99.90;;;;;;5349148;26;20463;-68
2024/04/18 06:04:54;;;;;;;13.75;4.70;;;5.90;99.90;;;;;;5349301;26;20001;-69
2024/04/18 06:07:20;;;;;;;10.98;4.53;;;6.20;99.90;;;;;;5349113;26;20059;-69
2024/04/18 06:09:45;;;;;;;12.80;4.57;;;6.50;99.90;;;;;;5392131;26;20015;-69
2024/04/18 06:12:12;;;;;;;9.52;3.88;;;6.50;99.90;;;;;;5419371;26;19996;-68
2024/04/18 06:14:37;;;;;;;12.93;4.05;;;6.70;99.90;;;;;;5419416;26;19995;-69
2024/04/18 06:17:03;;;;;;;13.80;4.32;;;6.90;99.90;;;;;;5419495;26;19999;-69
2024/04/18 06:19:29;;;;;;;12.48;4.78;;;6.90;99.90;;;;;;5419729;26;20073;-69
2024/04/18 06:21:54;;;;;;;15.18;4.50;;;7.80;99.90;;;;;;5419556;26;20413;-69
2024/04/18 06:24:20;;;;;;;10.13;3.45;;;8.70;99.90;;;;;;5419551;26;20000;-69
2024/04/18 06:26:45;;;;;;;12.07;3.53;;;9.20;99.90;;;;;;5419482;26;20375;-69
2024/04/18 06:29:11;;;;;;;9.70;3.38;;;9.70;98.50;;;;;;5419262;26;20457;-70
2024/04/18 06:31:37;;;;;;;9.18;3.63;;;10.40;99.90;;;;;;5419028;26;20447;-69
2024/04/18 06:34:02;;;;;;;8.23;3.67;;;10.40;45.40;;;;;;5418826;26;19999;-69
2024/04/18 06:36:28;;;;;;;9.45;3.33;;;9.50;41.20;;;;;;5419230;26;20010;-69
2024/04/18 06:38:54;;;;;;;11.02;3.22;;;8.90;59.30;;;;;;5418895;26;20132;-67
2024/04/18 06:41:19;;;;;;;11.52;3.20;;;8.40;98.70;;;;;;5418655;26;20003;-67
2024/04/18 06:43:45;;;;;;;9.07;3.42;;;8.30;99.90;;;;;;5418590;26;20068;-67
2024/04/18 06:46:11;;;;;;;11.13;4.00;;;8.40;99.90;;;;;;5418999;26;19995;-67
2024/04/18 06:48:36;;;;;;;11.75;3.63;;;8.40;96.60;;;;;;5418633;26;20007;-67
2024/04/18 06:51:02;;;;;;;7.35;3.08;;;8.70;75.80;;;;;;5416660;26;19999;-67
2024/04/18 06:53:28;;;;;;;9.98;3.47;;;8.80;56.60;;;;;;5417880;26;19996;-67
2024/04/18 06:55:53;;;;;;;8.85;3.22;;;8.50;48.90;;;;;;5418639;26;19995;-68
2024/04/18 06:58:19;;;;;;;11.80;3.58;;;8.50;39.20;;;;;;5418742;26;20007;-68
2024/04/18 07:00:46;;;;;;;11.13;3.80;;;8.50;10.60;;;;;;5418462;26;20011;-68
2024/04/18 07:03:14;;;;;;;8.35;3.58;;;8.70;21.90;;;;;;5418921;26;20058;-68
2024/04/18 07:05:39;;;;;;;7.95;3.15;;;8.90;48.10;;;;;;5418378;26;20010;-67
2024/04/18 07:08:05;;;;;;;11.23;4.30;;;8.50;38.50;;;;;;5418284;26;20469;-67
2024/04/18 07:10:32;;;;;;;7.57;3.55;;;8.90;38.90;;;;;;5418275;26;20336;-68
2024/04/18 07:12:57;;;;;;;6.55;3.17;;;10.20;22.30;;;;;;5403680;26;20015;-68
2024/04/18 07:15:23;;;;;;;10.52;3.55;;;11.10;1.00;;;;;;5382680;26;20334;-68
2024/04/18 07:17:54;;;;;;;6.75;3.10;;;11.70;99.90;;;;;;5382633;26;20065;-68
2024/04/18 07:20:20;;;;;;;8.93;3.38;;;;;;;;;;5382927;26;20450;-68
2024/04/18 07:22:46;;;;;;;9.13;2.53;;;13.90;99.90;;;;;;5381392;26;20466;-68
2024/04/18 07:25:11;;;;;;;8.15;2.97;;;14.10;99.90;;;;;;5382608;26;19996;-68
2024/04/18 07:27:37;;;;;;;8.07;2.88;;;13.30;49.60;;;;;;5382654;26;20068;-68
2024/04/18 07:30:03;;;;;;;6.38;2.80;;;12.50;99.90;;;;;;5382610;26;20447;-68
2024/04/18 07:32:29;;;;;;;12.65;3.15;;;11.60;99.90;;;;;;5380674;26;19996;-67
2024/04/18 07:34:55;;;;;;;10.38;2.95;;;10.90;99.90;;;;;;5382490;26;20004;-67
2024/04/18 07:37:21;;;;;;;8.82;3.03;;;11.30;95.50;;;;;;5382416;26;20032;-68
2024/04/18 07:39:46;;;;;;;10.18;2.88;;;11.30;99.90;;;;;;5382382;26;19996;-67
2024/04/18 07:42:12;;;;;;;7.80;2.85;;;11.20;38.40;;;;;;5382433;26;19996;-67
2024/04/18 07:44:39;;;;;;;9.70;3.25;;;11.00;99.90;;;;;;5382110;26;20451;-68
2024/04/18 07:47:06;;;;;;;9.23;3.35;;;10.40;99.90;;;;;;5380329;26;19996;-67
2024/04/18 07:49:31;;;;;;;11.13;3.15;;;9.90;66.90;;;;;;5381863;26;20004;-67
2024/04/18 07:51:57;;;;;;;9.60;3.15;;;9.80;1.00;;;;;;5382182;26;20000;-67
2024/04/18 07:54:23;;;;;;;9.45;3.00;;;10.10;97.20;;;;;;5382427;26;19993;-67
2024/04/18 07:56:49;;;;;;;9.07;3.13;;;10.20;69.50;;;;;;5382487;26;20047;-67
2024/04/18 07:59:15;;;;;;;7.00;2.75;;;10.20;1.00;;;;;;5382449;26;20074;-67
2024/04/18 08:01:41;;;;;;;8.60;3.70;;;10.10;99.90;;;;;;5382150;26;19997;-67
2024/04/18 08:04:08;;;;;;;11.00;3.40;;;10.40;31.10;;;;;;5381866;26;19999;-68
2024/04/18 08:06:35;;;;;;;10.88;3.65;;;10.80;99.90;;;;;;5382024;26;20003;-67
2024/04/18 08:09:02;;;;;;;8.68;3.53;;;11.10;99.90;;;;;;5380055;26;19996;-68
2024/04/18 08:11:27;;;;;;;6.80;3.28;;;11.50;1.00;;;;;;5382352;26;20000;-67
2024/04/18 08:13:53;;;;;;;14.55;3.20;;;12.00;99.90;;;;;;5381909;26;19992;-68
2024/04/18 08:16:19;;;;;;;8.85;3.58;;;12.00;1.00;;;;;;5381762;26;20029;-67
2024/04/18 08:18:44;;;;;;;8.00;2.92;;;11.60;99.90;;;;;;5382103;26;20000;-67
2024/04/18 08:21:10;;;;;;;8.38;3.20;;;10.80;99.90;;;;;;5382292;26;20011;-68
2024/04/18 08:23:35;;;;;;;8.48;3.15;;;11.00;1.00;;;;;;5381968;26;20442;-67
2024/04/18 08:26:01;;;;;;;9.25;3.17;;;12.10;67.70;;;;;;5381803;26;20008;-67
2024/04/18 08:28:27;;;;;;;12.88;3.47;;;13.30;1.00;;;;;;5382251;26;20011;-68
2024/04/18 08:30:53;;;;;;;8.20;3.55;;;13.20;99.90;;;;;;5382030;26;20002;-67
2024/04/18 08:33:19;;;;;;;9.93;2.88;;;12.00;99.90;;;;;;5381780;26;20444;-67
2024/04/18 08:35:45;;;;;;;6.72;3.60;;;11.90;1.00;;;;;;5381898;26;20011;-67
2024/04/18 08:38:12;;;;;;;12.43;2.78;;;12.40;99.90;;;;;;5381912;26;20040;-67
2024/04/18 08:40:38;;;;;;;10.30;2.92;;;12.20;99.90;;;;;;5381786;26;20073;-67
2024/04/18 08:43:04;;;;;;;7.65;2.95;;;12.50;9.10;;;;;;5381828;26;20077;-67
2024/04/18 08:45:34;;;;;;;11.18;3.83;;;12.70;1.00;;;;;;5381746;26;19997;-67
2024/04/18 08:48:01;;;;;;;11.35;3.22;;;11.90;77.70;;;;;;5381542;26;20070;-67
2024/04/18 08:50:28;;;;;;;11.70;3.10;;;11.80;99.90;;;;;;5379680;26;20036;-67
2024/04/18 08:52:55;;;;;;;10.95;3.30;;;12.60;1.00;;;;;;5381288;26;20338;-67
2024/04/18 08:55:22;;;;;;;5.40;2.60;;;14.10;99.90;;;;;;5381309;26;20000;-68
2024/04/18 08:58:01;;;;;;;8.48;3.55;;;14.00;1.00;;;;;;5381339;26;20013;-67
2024/04/18 09:00:28;;;;;;;9.63;2.90;;;13.80;8.10;;;;;;5381064;26;19996;-68
2024/04/18 09:02:55;;;;;;;8.50;2.65;;;14.90;46.00;;;;;;5381068;26;20004;-67
2024/04/18 09:05:21;;;;;;;6.43;2.40;;;15.40;1.00;;;;;;5381142;26;20338;-67
2024/04/18 09:07:46;;;;;;;6.00;2.45;;;15.60;1.00;;;;;;5381333;26;20000;-67
2024/04/18 09:10:13;;;;;;;6.57;2.72;;;15.10;1.00;;;;;;5380708;26;20000;-68
2024/04/18 09:12:39;;;;;;;9.82;2.67;;;15.20;1.00;;;;;;5380732;26;20008;-68
2024/04/18 09:15:05;;;;;;;6.28;2.50;;;15.30;99.90;;;;;;5381489;26;20008;-68
2024/04/18 09:17:31;;;;;;;8.23;2.58;;;15.10;99.90;;;;;;5384580;26;20024;-69
2024/04/18 09:19:56;;;;;;;9.63;2.88;;;15.00;99.90;;;;;;5384542;26;20000;-68
2024/04/18 09:22:22;;;;;;;9.68;2.90;;;14.40;99.90;;;;;;5382993;26;20462;-67
2024/04/18 09:24:47;;;;;;;9.82;2.80;;;14.40;1.00;;;;;;5384818;26;20015;-67
2024/04/18 09:27:14;;;;;;;6.55;2.80;;;14.30;1.00;;;;;;5384650;26;20008;-67
2024/04/18 09:29:41;;;;;;;10.30;2.50;;;13.80;99.90;;;;;;5384280;26;19996;-67
2024/04/18 09:32:06;;;;;;;7.63;2.65;;;12.60;99.90;;;;;;5384626;26;20335;-67
2024/04/18 09:34:34;;;;;;;10.38;2.50;;;12.10;1.00;;;;;;5384270;26;20003;-67
2024/04/18 09:37:07;;;;;;;7.32;2.15;;;12.10;1.00;;;;;;5384276;26;20008;-67
2024/04/18 09:39:34;;;;;;;7.40;2.95;;;11.90;1.00;;;;;;5382537;26;20015;-67
2024/04/18 09:42:28;;;;;;;7.53;2.83;;;12.40;1.00;;;;;;5384298;26;20457;-67
2024/04/18 09:44:53;;;;;;;;;;;13.60;1.00;;;;;;5384881;26;20014;-67
2024/04/18 09:47:23;;;;;;;9.43;3.05;;;14.20;1.00;;;;;;5384299;26;19995;-67
2024/04/18 09:49:50;;;;;;;12.25;2.30;;;14.40;1.00;;;;;;5384301;26;19999;-67
2024/04/18 09:52:16;;;;;;;7.70;2.55;;;13.80;99.90;;;;;;5384428;26;19996;-67
2024/04/18 09:54:42;;;;;;;7.65;2.88;;;13.70;99.90;;;;;;5384069;26;19996;-67
2024/04/18 09:57:10;;;;;;;6.35;2.30;;;13.40;99.90;;;;;;5384202;26;20511;-68
2024/04/18 09:59:38;;;;;;;5.32;2.85;;;14.30;99.90;;;;;;5382359;26;20061;-67
2024/04/18 10:02:10;;;;;;;4.28;1.80;;;16.00;1.00;;;;;;5382175;26;20412;-67
2024/04/18 10:04:36;;;;;;;3.90;2.08;;;16.10;99.90;;;;;;5382726;26;19992;-67
2024/04/18 10:07:04;;;;;;;5.57;1.90;;;14.10;99.90;;;;;;5383925;26;19996;-68
2024/04/18 10:09:31;;;;;;;9.23;2.20;;;13.50;99.90;;;;;;5383842;26;20314;-68
2024/04/18 10:11:57;;;;;;;5.65;1.90;;;12.70;99.90;;;;;;5384006;26;20064;-68
2024/04/18 10:14:23;;;;;;;9.82;2.10;;;12.40;99.90;;;;;;5384184;26;20024;-68
2024/04/18 10:16:50;;;;;;;8.88;2.10;;;12.20;99.90;;;;;;5383681;26;20445;-67
2024/04/18 10:19:21;;;;;;;8.57;2.20;;;12.00;99.90;;;;;;5383495;26;20321;-67
2024/04/18 10:21:56;;;;;;;13.07;2.60;;;12.00;99.90;;;;;;5383527;26;20342;-68
2024/04/18 10:24:21;;;;;;;5.68;2.58;;;12.90;99.90;;;;;;5383556;26;20011;-68
2024/04/18 10:26:59;;;;;;;6.47;2.40;;;14.00;99.90;;;;;;5383057;26;20505;-68
2024/04/18 10:29:26;;;;;;;8.60;2.90;;;14.60;99.90;;;;;;5383614;26;19992;-68
2024/04/18 10:31:54;;;;;;;10.25;2.80;;;15.50;99.90;;;;;;5383415;26;20334;-68
2024/04/18 10:34:22;;;;;;;5.57;2.20;;;15.60;99.90;;;;;;5383255;26;20065;-68
2024/04/18 10:36:48;;;;;;;6.40;2.30;;;15.50;99.90;;;;;;5383614;26;20010;-68
2024/04/18 10:39:30;;;;;;;8.75;2.28;;;14.50;99.90;;;;;;5383367;26;19988;-68
2024/04/18 10:42:00;;;;;;;8.15;2.65;;;13.80;99.90;;;;;;5381620;26;19992;-68
2024/04/18 10:44:26;;;;;;;7.65;2.50;;;13.20;99.90;;;;;;5381809;26;20326;-68
2024/04/18 10:46:54;;;;;;;6.10;2.42;;;12.80;99.90;;;;;;5382912;26;20024;-68
2024/04/18 10:49:22;;;;;;;7.03;2.22;;;12.50;99.90;;;;;;5383221;26;19992;-68
2024/04/18 10:51:49;;;;;;;5.85;2.60;;;12.20;99.90;;;;;;5383152;26;19997;-68
2024/04/18 10:54:15;;;;;;;6.28;2.15;;;12.20;99.90;;;;;;5382900;26;20074;-68
2024/04/18 10:56:41;;;;;;;5.88;2.10;;;12.10;99.90;;;;;;5383311;26;20004;-68
2024/04/18 10:59:07;;;;;;;7.90;2.47;;;12.20;99.90;;;;;;5382977;26;19996;-68
2024/04/18 11:01:37;;;;;;;11.57;2.67;;;12.30;99.90;;;;;;5383006;26;19998;-67
2024/04/18 11:04:04;;;;;;;3.92;1.83;;;12.30;99.90;;;;;;5382497;26;20360;-67
2024/04/18 11:06:29;;;;;;;5.25;1.92;;;12.80;99.90;;;;;;5381293;26;20425;-67
2024/04/18 11:08:55;;;;;;;5.63;2.08;;;13.10;99.90;;;;;;5382995;26;19996;-67
2024/04/18 11:11:26;;;;;;;7.78;2.05;;;13.00;99.90;;;;;;5382847;26;20446;-67
2024/04/18 11:13:54;;;;;;;4.70;1.63;;;12.90;99.90;;;;;;5382882;26;19996;-68
2024/04/18 11:16:20;;;;;;;7.78;1.88;;;12.80;99.90;;;;;;5382938;26;20465;-68
2024/04/18 11:18:46;;;;;;;6.00;1.92;;;13.20;99.90;;;;;;5382831;26;19998;-68
2024/04/18 11:21:14;;;;;;;3.65;1.35;;;14.10;99.90;;;;;;5382995;26;19989;-68
2024/04/18 11:23:40;;;;;;;9.02;2.13;;;14.40;99.90;;;;;;5382820;26;20024;-67
2024/04/18 11:26:09;;;;;;;6.25;1.63;;;13.90;99.90;;;;;;5382515;26;20008;-68
2024/04/18 11:28:35;;;;;;;7.43;2.08;;;14.10;99.90;;;;;;5382698;26;20024;-67
2024/04/18 11:31:00;;;;;;;4.28;1.95;;;13.90;99.90;;;;;;5382541;26;20038;-68
2024/04/18 11:33:26;;;;;;;5.60;1.63;;;13.40;99.90;;;;;;5382501;26;19997;-67
2024/04/18 11:35:52;;;;;;;2.58;1.60;;;13.70;99.90;;;;;;5382346;26;20008;-67
2024/04/18 11:38:17;;;;;;;4.70;1.77;;;13.70;99.90;;;;;;5381696;26;19992;-67
2024/04/18 11:40:44;;;;;;;4.80;1.58;;;13.90;99.90;;;;;;5382045;26;19996;-67
2024/04/18 11:43:09;;;;;;;4.10;1.60;;;13.90;99.90;;;;;;5380983;26;19996;-67
2024/04/18 11:45:36;;;;;;;4.60;1.83;;;13.80;99.90;;;;;;5382372;26;20069;-67
2024/04/18 11:48:03;;;;;;;4.32;1.80;;;13.60;99.90;;;;;;5382063;26;19992;-67
2024/04/18 11:50:29;;;;;;;3.10;1.23;;;13.30;99.90;;;;;;5380090;26;20004;-67
2024/04/18 11:52:55;;;;;;;2.70;1.33;;;13.20;99.90;;;;;;5382104;26;20069;-67
2024/04/18 11:55:22;;;;;;;2.40;1.10;;;13.10;99.90;;;;;;5382348;26;19996;-67
2024/04/18 11:57:48;;;;;;;3.78;1.55;;;12.80;99.90;;;;;;5382227;26;20511;-67
2024/04/18 12:00:14;;;;;;;4.38;1.30;;;13.20;99.90;;;;;;5382160;26;20008;-67
2024/04/18 12:02:39;;;;;;;3.53;1.58;;;13.60;99.90;;;;;;5382266;26;20004;-67
2024/04/18 12:05:07;;;;;;;5.97;1.27;;;13.80;99.90;;;;;;5382107;26;20004;-67
2024/04/18 12:07:33;;;;;;;2.20;1.20;;;14.40;99.90;;;;;;5382276;26;20004;-67
2024/04/18 12:09:58;;;;;;;6.65;1.70;;;14.10;99.90;;;;;;5381714;26;19988;-67
2024/04/18 12:12:24;;;;;;;2.85;1.38;;;13.90;99.90;;;;;;5381732;26;19999;-67
2024/04/18 12:14:50;;;;;;;3.63;1.40;;;14.60;99.90;;;;;;5381883;26;20069;-67
2024/04/18 12:17:16;;;;;;;5.15;1.85;;;14.10;99.90;;;;;;5381692;26;20457;-67
2024/04/18 12:19:42;;;;;;;4.00;1.40;;;14.00;99.90;;;;;;5381919;26;20004;-67
2024/04/18 12:22:15;;;;;;;4.35;1.60;;;13.70;99.90;;;;;;5382004;26;19996;-66
2024/04/18 12:24:41;;;;;;;7.53;1.63;;;14.00;99.90;;;;;;5382194;26;20004;-67
2024/04/18 12:27:06;;;;;;;5.50;1.52;;;14.40;99.90;;;;;;5381879;26;19996;-67
2024/04/18 12:29:32;;;;;;;4.65;1.60;;;14.30;99.90;;;;;;5380242;26;20073;-67
2024/04/18 12:31:59;;;;;;;5.75;1.52;;;13.90;99.90;;;;;;5382301;26;20000;-67
2024/04/18 12:34:25;;;;;;;3.42;1.50;;;13.70;99.90;;;;;;5381926;26;19992;-67
2024/04/18 12:36:51;;;;;;;4.90;1.20;;;14.00;99.90;;;;;;5381876;26;20016;-67
2024/04/18 12:39:17;;;;;;;6.35;1.35;;;14.00;99.90;;;;;;5381823;26;19996;-67
2024/04/18 12:41:43;;;;;;;3.55;0.93;;;14.20;1.00;;;;;;5381936;26;20438;-67